SBFZSBTE

Guest
Details From SBFZ - Pinto Martins
To SBTE - Senador Petronio Portella
Flight Number -
Tags Generated
Created
Modified
Stats Distance 268 nm / 496 km
Max Altitude 0 ft / 0 m
Waypoints 3
Social Downloads 1
Likes 0
Share VATSIM

Download

Looking for another format? Having issues loading an existing format? Contact us
Advertisement - Login to hide

Notes

Generated

Route

SBFZ TRS SBTE

ID Type Via Altitude Latitude Longitude Leg Dist Tot Dist Heading (true) Name
O SBFZ APT - 0 ft / 0 m -3.77334˚ -38.54365˚ - 0 nm - -
TRS NDB - 0 ft / 0 m -5.06733˚ -42.81950˚ 267 nm 267 nm 253° / 253° TERESINA NDB
O SBTE APT - 0 ft / 0 m -5.06982˚ -42.82246˚ 0 nm 267 nm 230° / 230° -

Altitude Profile

Advertisement - Login to hide

Weather


0- 5 10 15 20 25 30 35+ Temperature / ° C

Clouds and Precipitation
Forecast for 2018-05-28 00:00 UTC. Updated 9 hours ago

Ground ~20,000 ft ~40,000 ft Winds

SBFZ

Details ICAO SBFZ (FOR)
Name Pinto Martins
Region Brazil
Timezone America/Fortaleza (UTC-3.0)
Stats Elevation 82 ft / 25 m (AMSL)
Location -3.776283° -38.532556°
Runways 1
Magnetic Variation 21.109° W

METAR

Not found

TAF

TAF SBFZ 272200Z 2800/2824 09006KT 8000 SCT020 TN25/2808Z TX30/2815Z BECMG 2803/2804 15005KT BECMG 2810/2812 14012KT SCT025 FEW030TCU BECMG 2815/2817 10009KT SCT025 RMK PEA

Decode

Departure Runways

ID Width Length Bearing (true) Bearing (mag) Surface Threshold Offset Overrun Length
13 148 ft / 45 m 8,360 ft / 2,548 m 104.88° 125.99° Asphalt 0 ft / 0 m 195 ft / 59 m
31 148 ft / 45 m 8,360 ft / 2,548 m 284.88° 305.99° Asphalt 0 ft / 0 m 125 ft / 38 m

SBTE

Details ICAO SBTE (THE)
Name Senador Petronio Portella
Region Brazil
Timezone America/Fortaleza (UTC-3.0)
Stats Elevation 219 ft / 67 m (AMSL)
Location -5.059940° -42.823478°
Runways 1
Magnetic Variation 21.543° W

METAR

Not found

TAF

TAF SBTE 272200Z 2800/2812 33004KT CAVOK TX27/2800Z TN23/2807Z TEMPO 2807/2810 3000 BR BKN009 RMK PEA

Decode

Destination Runways

ID Width Length Bearing (true) Bearing (mag) Surface Threshold Offset Overrun Length
02 148 ft / 45 m 7,246 ft / 2,209 m 354.11° 15.65° Asphalt 0 ft / 0 m 190 ft / 58 m
20 148 ft / 45 m 7,246 ft / 2,209 m 174.12° 195.66° Asphalt 0 ft / 0 m 190 ft / 58 m

Popular Alternatives